Time;durP1;ratioP1;P1;durP2;ratioP2;P2;SDS_P1;SDS_P2;PMS_P1;PMS_P2;Temp;Humidity;BMP_temperature;BMP_pressure;BME280_temperature;BME280_humidity;BME280_pressure;Samples;Min_cycle;Max_cycle;Signal;HPM_P1;HPM_P2
2022/07/20 00:01:09;;;;;;;3.23;1.80;;;;;;;21.32;63.56;99975.97;5128549;28;20204;-67
2022/07/20 00:03:38;;;;;;;1.87;1.73;;;;;;;21.34;63.36;99981.06;5117054;28;20205;-66
2022/07/20 00:06:05;;;;;;;2.00;1.90;;;;;;;21.31;63.35;99986.50;5111043;28;20208;-66
2022/07/20 00:11:22;;;;;;;1.70;1.70;;;;;;;21.26;63.40;99996.41;5111201;28;20201;-66
2022/07/20 00:13:49;;;;;;;2.00;1.47;;;;;;;21.16;64.09;100000.53;5111338;28;20229;-66
2022/07/20 00:16:16;;;;;;;2.03;1.93;;;;;;;21.14;63.62;100007.59;5126875;28;20219;-66
2022/07/20 00:18:44;;;;;;;2.40;2.30;;;;;;;21.11;63.67;100005.19;5118908;28;20196;-66
2022/07/20 00:21:11;;;;;;;1.60;1.50;;;;;;;21.08;63.56;99998.38;5122953;28;20255;-66
2022/07/20 00:23:38;;;;;;;2.13;2.03;;;;;;;21.08;63.33;100005.34;5131325;28;20562;-66
2022/07/20 00:26:04;;;;;;;1.70;1.60;;;;;;;21.05;63.17;99998.56;5129274;28;20194;-66
2022/07/20 00:28:31;;;;;;;1.80;1.77;;;;;;;21.03;63.31;100007.44;5112345;28;20717;-66
2022/07/20 00:30:58;;;;;;;1.53;1.30;;;;;;;20.97;63.52;100007.81;5123080;27;20198;-66
2022/07/20 00:33:25;;;;;;;1.90;1.80;;;;;;;20.82;64.47;100002.63;5112889;28;20203;-66
2022/07/20 00:35:53;;;;;;;4.10;1.30;;;;;;;20.78;64.81;100006.34;5120315;27;20202;-66
2022/07/20 00:38:20;;;;;;;1.33;1.33;;;;;;;20.79;65.19;100013.25;5128499;28;20258;-66
2022/07/20 00:40:47;;;;;;;1.50;1.50;;;;;;;20.78;66.06;100011.56;5131310;27;20684;-66
2022/07/20 00:43:14;;;;;;;1.67;1.63;;;;;;;20.74;66.73;100015.28;5131098;28;20201;-66
2022/07/20 00:45:41;;;;;;;1.47;1.47;;;;;;;20.66;67.92;100011.50;5130964;28;20575;-66
2022/07/20 00:48:07;;;;;;;1.13;1.13;;;;;;;20.65;68.07;100010.66;5112665;28;20202;-67
2022/07/20 00:50:34;;;;;;;1.50;1.40;;;;;;;20.65;68.52;100000.22;5110918;28;20198;-66
2022/07/20 00:53:03;;;;;;;2.40;1.57;;;;;;;20.62;68.99;99999.56;5113118;28;20660;-66
2022/07/20 00:55:30;;;;;;;3.13;2.97;;;;;;;20.63;68.97;99994.28;5131407;27;20201;-66
2022/07/20 00:57:57;;;;;;;2.13;2.03;;;;;;;20.56;69.27;99995.59;5134264;27;20217;-66
2022/07/20 01:00:23;;;;;;;4.53;2.07;;;;;;;20.55;69.28;99988.69;5123257;27;20212;-66
2022/07/20 01:02:50;;;;;;;2.00;1.90;;;;;;;20.42;69.21;99972.16;5134934;27;20193;-66
2022/07/20 01:05:17;;;;;;;2.53;2.00;;;;;;;20.53;69.39;99995.78;5124891;27;20208;-67
2022/07/20 01:07:46;;;;;;;1.53;1.53;;;;;;;20.55;69.42;99991.28;5122528;27;20198;-67
2022/07/20 01:10:15;;;;;;;2.33;2.23;;;;;;;20.54;69.49;99987.03;5121223;27;20667;-66
2022/07/20 01:12:45;;;;;;;3.20;2.17;;;;;;;20.52;69.13;99983.69;5114957;27;20193;-66
2022/07/20 01:15:11;;;;;;;2.37;2.17;;;;;;;20.51;68.32;99983.78;5128809;27;20265;-66
2022/07/20 01:17:38;;;;;;;2.30;2.07;;;;;;;20.53;68.53;99985.34;5129921;27;20221;-66
2022/07/20 01:20:06;;;;;;;1.67;1.67;;;;;;;20.55;68.75;99975.66;5131630;27;20195;-66
2022/07/20 01:22:34;;;;;;;2.33;1.80;;;;;;;20.58;68.33;99980.69;5132535;27;20656;-66
2022/07/20 01:25:01;;;;;;;2.03;1.93;;;;;;;20.51;68.16;99971.59;5132339;27;20209;-66
2022/07/20 01:27:28;;;;;;;1.87;1.77;;;;;;;20.59;68.21;99979.75;5118168;27;20256;-66
2022/07/20 01:29:55;;;;;;;2.13;2.03;;;;;;;20.60;68.40;99978.00;5120346;27;20202;-66
2022/07/20 01:32:21;;;;;;;2.13;2.00;;;;;;;20.58;67.94;99967.66;5117589;27;20206;-66
2022/07/20 01:34:48;;;;;;;1.63;1.63;;;;;;;20.62;67.89;99976.13;5117671;27;20202;-66
2022/07/20 01:37:15;;;;;;;2.03;1.93;;;;;;;20.61;67.68;99980.53;5131046;27;20217;-66
2022/07/20 01:39:43;;;;;;;2.20;2.10;;;;;;;20.61;68.24;99977.91;5115837;27;20207;-66
2022/07/20 01:42:10;;;;;;;1.90;1.80;;;;;;;20.60;68.49;99976.25;5131604;27;20555;-66
2022/07/20 01:44:37;;;;;;;1.90;1.70;;;;;;;20.58;68.52;99978.06;5133901;27;20211;-66
2022/07/20 01:47:04;;;;;;;2.17;2.07;;;;;;;20.53;68.30;99984.50;5134176;27;20197;-66
2022/07/20 01:49:30;;;;;;;2.10;2.00;;;;;;;20.40;68.47;99984.44;5134012;27;20655;-66
2022/07/20 01:51:57;;;;;;;7.67;2.00;;;;;;;20.23;68.80;99971.56;5126025;27;20225;-66
2022/07/20 01:54:24;;;;;;;3.20;2.13;;;;;;;20.21;69.14;99968.22;5113135;28;20190;-66
2022/07/20 01:56:52;;;;;;;2.00;1.90;;;;;;;20.23;70.51;99984.56;5112945;28;20254;-66
2022/07/20 01:59:19;;;;;;;4.27;2.67;;;;;;;20.19;71.04;99985.72;5114836;27;20202;-66
2022/07/20 02:01:46;;;;;;;2.67;2.40;;;;;;;20.00;72.83;99983.34;5133241;27;20189;-66
2022/07/20 02:04:13;;;;;;;2.50;2.40;;;;;;;19.74;73.46;99958.06;5133660;27;20201;-67
2022/07/20 02:06:40;;;;;;;2.33;2.23;;;;;;;19.79;73.56;99988.06;5131311;27;20207;-66
2022/07/20 02:09:07;;;;;;;2.37;2.27;;;;;;;19.76;73.47;99970.03;5133843;27;20287;-66
2022/07/20 02:11:33;;;;;;;2.27;2.17;;;;;;;19.85;73.20;99976.47;5133519;27;20201;-66
2022/07/20 02:14:02;;;;;;;2.50;2.30;;;;;;;19.85;73.45;99979.91;5113031;27;20220;-66
2022/07/20 02:16:28;;;;;;;2.67;2.47;;;;;;;19.83;73.40;99978.34;5128486;27;20206;-66
2022/07/20 02:18:56;;;;;;;4.10;3.17;;;;;;;19.73;72.85;99970.22;5114237;27;20203;-66
2022/07/20 02:21:23;;;;;;;5.20;2.37;;;;;;;19.80;73.32;99983.72;5127137;27;20200;-66
2022/07/20 02:23:51;;;;;;;2.40;2.30;;;;;;;19.77;73.26;99978.69;5115937;27;20198;-66
2022/07/20 02:26:18;;;;;;;2.03;1.93;;;;;;;19.74;72.82;99984.06;5125795;27;20631;-66
2022/07/20 02:28:46;;;;;;;2.53;2.43;;;;;;;19.73;73.23;99982.41;5122454;27;20212;-66
2022/07/20 02:31:14;;;;;;;2.33;2.23;;;;;;;19.72;73.00;99976.34;5123686;27;20207;-66
2022/07/20 02:33:41;;;;;;;2.23;2.13;;;;;;;19.66;72.71;99976.72;5120252;27;20300;-66
2022/07/20 02:36:09;;;;;;;3.33;2.07;;;;;;;19.57;73.33;99966.00;5129955;27;20603;-66
2022/07/20 02:38:36;;;;;;;3.37;2.20;;;;;;;19.49;73.79;99974.25;5127174;27;20222;-66
2022/07/20 02:41:03;;;;;;;12.73;4.00;;;;;;;19.44;73.94;99971.06;5115630;27;20250;-66
2022/07/20 02:43:29;;;;;;;11.23;2.87;;;;;;;19.38;74.19;99977.44;5119233;27;20201;-66
2022/07/20 02:45:56;;;;;;;2.63;2.53;;;;;;;19.30;74.84;99966.63;5123242;27;20245;-66
2022/07/20 02:48:25;;;;;;;2.10;2.00;;;;;;;19.39;74.38;99979.09;5112226;27;20201;-66
2022/07/20 02:50:52;;;;;;;6.40;2.33;;;;;;;19.38;74.69;99974.84;5125694;27;20195;-66
2022/07/20 02:53:18;;;;;;;2.43;2.23;;;;;;;19.35;74.65;99982.78;5120408;27;20684;-66
2022/07/20 02:55:46;;;;;;;2.30;2.20;;;;;;;19.24;74.74;99982.56;5127731;27;20273;-66
2022/07/20 02:58:13;;;;;;;2.40;2.30;;;;;;;19.18;74.67;99987.28;5132389;27;20590;-66
2022/07/20 03:00:41;;;;;;;2.13;2.00;;;;;;;19.10;74.84;99981.66;5132339;27;20200;-66
2022/07/20 03:03:08;;;;;;;2.93;2.80;;;;;;;19.08;75.36;99986.97;5131716;27;20607;-66
2022/07/20 03:05:37;;;;;;;2.60;2.40;;;;;;;19.10;75.05;99982.50;5131892;27;20590;-66
2022/07/20 03:08:06;;;;;;;6.27;2.70;;;;;;;19.09;75.28;99985.19;5131962;27;20671;-66
2022/07/20 03:10:33;;;;;;;2.00;1.90;;;;;;;19.05;75.06;99986.28;5132483;27;20548;-66
2022/07/20 03:13:00;;;;;;;2.90;2.80;;;;;;;19.02;75.03;99984.69;5131989;27;20206;-66
2022/07/20 03:15:27;;;;;;;2.60;2.50;;;;;;;19.00;75.03;99985.72;5130182;27;20209;-66
2022/07/20 03:17:55;;;;;;;3.13;2.60;;;;;;;19.00;75.47;99991.72;5115414;27;20221;-66
2022/07/20 03:20:23;;;;;;;2.70;2.60;;;;;;;18.98;75.54;99987.53;5111377;27;20690;-67
2022/07/20 03:22:52;;;;;;;2.83;2.73;;;;;;;18.94;75.38;99983.44;5112415;27;20196;-67
2022/07/20 03:25:20;;;;;;;2.60;2.50;;;;;;;18.91;75.68;99986.19;5120011;27;20208;-68
2022/07/20 03:27:47;;;;;;;2.90;2.70;;;;;;;18.90;75.86;99985.38;5124770;27;20199;-67
2022/07/20 03:30:16;;;;;;;2.63;2.43;;;;;;;18.92;76.21;99990.47;5112441;27;20213;-67
2022/07/20 03:32:43;;;;;;;2.90;2.70;;;;;;;18.94;75.86;99986.03;5110982;28;20279;-67
2022/07/20 03:35:09;;;;;;;5.20;2.83;;;;;;;18.96;75.85;99995.44;5124447;27;20654;-67
2022/07/20 03:37:36;;;;;;;5.73;2.70;;;;;;;18.96;75.79;99979.00;5112118;27;20216;-67
2022/07/20 03:40:05;;;;;;;8.77;3.00;;;;;;;19.01;75.69;99984.78;5111325;27;20200;-67
2022/07/20 03:42:32;;;;;;;6.50;2.87;;;;;;;18.99;76.50;99995.25;5126396;27;20222;-67
2022/07/20 03:44:59;;;;;;;2.93;2.83;;;;;;;19.07;76.58;99984.44;5109141;28;20243;-67
2022/07/20 03:47:26;;;;;;;3.83;2.83;;;;;;;19.17;76.27;99988.19;5126444;27;20551;-67
2022/07/20 03:49:53;;;;;;;3.03;2.93;;;;;;;19.27;75.90;99986.75;5116132;27;20677;-67
2022/07/20 03:52:21;;;;;;;5.60;2.37;;;;;;;19.35;76.28;99981.97;5129860;27;20289;-67
2022/07/20 03:54:48;;;;;;;3.33;3.13;;;;;;;19.53;76.16;99988.75;5127988;27;20226;-67
2022/07/20 03:57:16;;;;;;;2.80;2.67;;;;;;;19.67;75.48;99998.38;5131608;28;20227;-67
2022/07/20 03:59:43;;;;;;;3.30;3.10;;;;;;;19.76;74.11;99988.25;5131245;28;20203;-67
2022/07/20 04:02:10;;;;;;;3.43;3.23;;;;;;;19.91;74.55;99984.75;5124752;27;20191;-67
2022/07/20 04:04:37;;;;;;;8.03;2.80;;;;;;;20.07;74.33;99992.47;5110534;28;20203;-67
2022/07/20 04:07:03;;;;;;;4.60;2.90;;;;;;;20.22;73.00;99998.56;5119853;28;20205;-67
2022/07/20 04:09:46;;;;;;;2.83;2.60;;;;;;;20.34;72.93;100005.66;5119040;28;20208;-67
2022/07/20 04:12:17;;;;;;;4.67;2.10;;;;;;;20.47;72.33;99995.31;5117154;27;20260;-67
2022/07/20 04:14:44;;;;;;;3.90;3.10;;;;;;;20.64;71.62;100009.00;5122520;28;20219;-67
2022/07/20 04:17:11;;;;;;;2.73;2.30;;;;;;;20.81;71.01;100008.75;5122900;28;20202;-67
2022/07/20 04:19:38;;;;;;;2.73;2.53;;;;;;;21.01;70.23;100002.28;5131148;28;20202;-67
2022/07/20 04:22:06;;;;;;;2.20;2.10;;;;;;;21.16;69.30;100001.38;5120948;27;20575;-67
2022/07/20 04:24:33;;;;;;;4.90;1.93;;;;;;;21.26;68.82;100006.84;5115708;27;20214;-67
2022/07/20 04:27:00;;;;;;;2.07;1.97;;;;;;;21.45;68.61;100007.31;5114687;27;20260;-67
2022/07/20 04:29:28;;;;;;;3.03;2.10;;;;;;;21.54;67.53;99985.84;5114048;28;20198;-67
2022/07/20 04:31:55;;;;;;;6.73;2.20;;;;;;;21.77;66.78;100002.59;5116062;27;20203;-67
2022/07/20 04:34:22;;;;;;;2.53;2.17;;;;;;;21.78;66.02;99989.41;5114891;27;20202;-67
2022/07/20 04:36:49;;;;;;;2.00;1.60;;;;;;;21.93;67.31;100004.09;5116238;27;20548;-67
2022/07/20 04:39:16;;;;;;;1.80;1.70;;;;;;;21.99;66.71;100005.44;5117315;27;20220;-67
2022/07/20 04:41:43;;;;;;;1.90;1.80;;;;;;;21.98;66.01;99978.50;5134785;27;20217;-67
2022/07/20 04:44:10;;;;;;;2.37;2.27;;;;;;;22.33;66.11;100006.59;5135248;27;20186;-67
2022/07/20 04:46:38;;;;;;;3.53;1.90;;;;;;;22.53;65.03;100008.66;5134314;27;20206;-67
2022/07/20 04:49:05;;;;;;;1.77;1.67;;;;;;;22.60;65.37;100004.69;5134430;27;20190;-67
2022/07/20 04:51:32;;;;;;;2.03;1.83;;;;;;;22.52;66.33;100001.75;5132456;27;20230;-67
2022/07/20 04:53:58;;;;;;;1.60;1.60;;;;;;;22.49;66.48;99994.97;5126516;27;20693;-67
2022/07/20 04:56:25;;;;;;;4.77;2.00;;;;;;;22.75;66.78;100011.47;5133961;27;20205;-67
2022/07/20 04:58:54;;;;;;;1.63;1.53;;;;;;;22.99;64.83;100006.28;5126053;27;20586;-67
2022/07/20 05:01:21;;;;;;;3.70;1.97;;;;;;;23.23;65.83;100014.97;5131781;27;20207;-67
2022/07/20 05:03:50;;;;;;;2.80;2.63;;;;;;;23.45;64.35;100003.81;5134277;27;20210;-67
2022/07/20 05:06:17;;;;;;;1.87;1.77;;;;;;;23.51;62.74;100006.00;5132603;27;20197;-67
2022/07/20 05:08:44;;;;;;;2.70;2.00;;;;;;;23.53;61.41;99996.22;5119256;27;20277;-65
2022/07/20 05:11:11;;;;;;;2.00;1.67;;;;;;;23.66;62.81;99999.59;5123646;27;20681;-65
2022/07/20 05:13:38;;;;;;;1.73;1.70;;;;;;;23.80;60.24;99998.56;5121017;27;20214;-65
2022/07/20 05:16:06;;;;;;;1.70;1.67;;;;;;;23.79;59.34;99997.75;5121506;27;20583;-65
2022/07/20 05:18:33;;;;;;;1.73;1.63;;;;;;;23.84;60.68;100000.88;5130553;27;20222;-65
2022/07/20 05:21:01;;;;;;;1.90;1.80;;;;;;;23.98;60.89;99989.31;5129003;27;20209;-67
2022/07/20 05:23:28;;;;;;;5.50;2.13;;;;;;;24.00;59.45;100000.53;5118091;27;20199;-67
2022/07/20 05:25:55;;;;;;;2.37;2.03;;;;;;;24.12;60.29;100004.03;5120157;27;20203;-68
2022/07/20 05:28:22;;;;;;;2.03;1.93;;;;;;;24.28;59.69;100002.72;5121032;27;20194;-68
2022/07/20 05:30:50;;;;;;;2.20;1.67;;;;;;;24.49;58.76;100013.34;5121958;27;20662;-68
2022/07/20 05:33:17;;;;;;;2.87;1.63;;;;;;;24.83;57.45;100012.41;5126645;27;20202;-68
2022/07/20 05:35:44;;;;;;;2.57;2.10;;;;;;;24.85;55.78;99994.75;5120003;27;20201;-68
2022/07/20 05:38:13;;;;;;;1.77;1.67;;;;;;;25.14;56.33;100021.25;5123898;27;20627;-68
2022/07/20 05:40:39;;;;;;;4.90;1.80;;;;;;;25.39;54.30;100018.34;5116982;27;20203;-67
2022/07/20 05:43:06;;;;;;;2.50;1.97;;;;;;;25.54;55.13;100011.03;5115458;27;20202;-67
2022/07/20 05:45:33;;;;;;;2.20;2.10;;;;;;;25.64;53.75;100008.47;5123960;27;20214;-66
2022/07/20 05:48:00;;;;;;;2.00;1.90;;;;;;;25.83;53.45;100009.44;5115592;27;20214;-65
2022/07/20 05:50:27;;;;;;;2.03;1.93;;;;;;;26.07;52.95;100011.81;5116959;27;20198;-65
2022/07/20 05:52:53;;;;;;;6.27;2.43;;;;;;;26.35;52.81;100002.44;5121618;27;20583;-64
2022/07/20 05:55:23;;;;;;;3.53;2.13;;;;;;;26.34;53.46;100006.00;5125686;27;20195;-64
2022/07/20 05:57:50;;;;;;;1.93;1.83;;;;;;;26.26;53.10;99995.34;5127385;27;20305;-64
2022/07/20 06:00:17;;;;;;;3.37;1.60;;;;;;;26.50;51.14;100008.97;5121662;27;20217;-64
2022/07/20 06:02:44;;;;;;;2.10;2.00;;;;;;;26.73;50.18;100009.63;5127017;27;20202;-63
2022/07/20 06:05:11;;;;;;;1.50;1.50;;;;;;;26.81;48.84;100002.78;5116080;27;20209;-65
2022/07/20 06:07:38;;;;;;;1.70;1.60;;;;;;;26.89;50.70;100010.81;5119330;27;20206;-64
2022/07/20 06:10:06;;;;;;;1.50;1.50;;;;;;;27.10;52.33;100008.94;5127365;27;20255;-65
2022/07/20 06:12:34;;;;;;;3.40;1.87;;;;;;;27.26;50.62;99999.66;5125800;27;20202;-65
2022/07/20 06:15:01;;;;;;;1.60;1.50;;;;;;;27.50;50.19;100005.34;5126587;27;20252;-65
2022/07/20 06:17:34;;;;;;;1.37;1.37;;;;;;;27.63;49.53;100005.91;5120336;27;20194;-65
2022/07/20 06:20:05;;;;;;;1.30;1.30;;;;;;;27.94;50.29;100004.78;5121405;27;20232;-64
2022/07/20 06:22:32;;;;;;;1.63;1.53;;;;;;;28.21;45.76;100011.13;5124134;27;21705;-65
2022/07/20 06:24:59;;;;;;;1.30;1.30;;;;;;;28.49;46.50;100012.81;5117209;27;20194;-65
2022/07/20 06:27:26;;;;;;;1.67;1.57;;;;;;;28.69;45.18;100024.97;5115875;27;20253;-65
2022/07/20 06:29:54;;;;;;;39.13;5.72;;;;;;;28.75;44.72;100021.75;5122977;27;20198;-65
2022/07/20 06:32:21;;;;;;;2.67;1.30;;;;;;;28.92;45.91;100018.28;5130745;27;20233;-66
2022/07/20 06:34:48;;;;;;;1.33;1.33;;;;;;;29.06;46.39;100019.59;5128017;27;20198;-65
2022/07/20 06:37:15;;;;;;;1.30;1.20;;;;;;;29.27;44.43;100019.38;5116988;27;20695;-65
2022/07/20 06:39:41;;;;;;;1.17;1.08;;;;;;;29.36;43.38;100021.09;5118325;27;20686;-65
2022/07/20 06:42:08;;;;;;;1.53;1.53;;;;;;;29.27;42.82;100012.28;5117573;27;20218;-66
2022/07/20 06:44:35;;;;;;;0.90;0.90;;;;;;;29.51;43.96;100014.28;5120154;27;20594;-65
2022/07/20 06:47:03;;;;;;;1.73;1.60;;;;;;;29.65;44.78;100005.84;5120980;27;20206;-65
2022/07/20 06:49:30;;;;;;;2.03;1.33;;;;;;;29.66;43.00;100002.22;5127012;27;20197;-65
2022/07/20 06:51:57;;;;;;;1.23;1.17;;;;;;;29.87;43.71;100000.09;5121666;27;20227;-65
2022/07/20 06:54:24;;;;;;;1.98;1.35;;;;;;;30.21;40.79;99998.31;5127384;27;20563;-66
2022/07/20 06:56:51;;;;;;;2.38;1.50;;;;;;;30.32;40.89;99999.03;5124962;27;20226;-65
2022/07/20 06:59:18;;;;;;;1.52;1.10;;;;;;;30.36;41.49;99995.06;5131141;27;20241;-66
2022/07/20 07:01:45;;;;;;;1.00;1.00;;;;;;;30.47;40.27;99982.41;5128786;27;20206;-66
2022/07/20 07:04:13;;;;;;;1.40;1.30;;;;;;;30.70;41.06;99996.72;5133785;27;20566;-65
2022/07/20 07:06:40;;;;;;;1.20;1.20;;;;;;;30.72;40.26;99999.22;5130891;27;20197;-67
2022/07/20 07:09:07;;;;;;;1.15;1.15;;;;;;;30.98;40.92;99994.72;5125476;27;20219;-66
2022/07/20 07:11:35;;;;;;;1.13;1.02;;;;;;;31.13;40.87;99974.53;5118359;27;20230;-65
2022/07/20 07:14:01;;;;;;;1.48;1.38;;;;;;;31.26;38.38;99989.09;5119862;27;20318;-64
2022/07/20 07:16:29;;;;;;;0.95;0.95;;;;;;;31.15;38.01;99988.44;5119654;27;20632;-65
2022/07/20 07:18:56;;;;;;;21.80;2.33;;;;;;;30.96;38.68;99991.38;5123421;27;20276;-65
2022/07/20 07:21:24;;;;;;;2.10;1.42;;;;;;;31.03;38.90;99989.75;5116634;27;20225;-65
2022/07/20 07:23:51;;;;;;;4.10;1.38;;;;;;;31.26;40.38;99989.09;5113150;27;20206;-66
2022/07/20 07:26:18;;;;;;;7.80;1.75;;;;;;;31.38;40.05;99955.97;5120398;27;20647;-64
2022/07/20 07:28:45;;;;;;;2.45;1.20;;;;;;;31.81;38.12;99990.13;5125389;27;20582;-65
2022/07/20 07:31:13;;;;;;;1.67;1.30;;;;;;;32.03;37.00;99989.44;5118837;27;20212;-65
2022/07/20 07:33:40;;;;;;;0.95;0.95;;;;;;;32.34;36.40;99986.91;5117189;27;20209;-65
2022/07/20 07:36:07;;;;;;;9.00;1.30;;;;;;;32.18;38.48;99982.44;5120563;27;20213;-66
2022/07/20 07:38:35;;;;;;;0.95;0.95;;;;;;;31.83;35.83;99980.16;5119653;27;20222;-65
2022/07/20 07:41:02;;;;;;;8.10;1.60;;;;;;;31.97;39.43;99984.81;5127079;27;20755;-65
2022/07/20 07:43:29;;;;;;;2.00;1.90;;;;;;;32.29;39.13;99981.25;5120217;27;20203;-65
2022/07/20 07:45:57;;;;;;;1.25;1.15;;;;;;;32.55;36.68;99980.97;5124198;27;20207;-65
2022/07/20 07:48:23;;;;;;;0.93;0.93;;;;;;;32.73;34.96;99982.41;5127468;27;20193;-66
2022/07/20 07:50:50;;;;;;;1.02;1.02;;;;;;;32.90;33.79;99982.31;5117337;27;20570;-65
2022/07/20 07:53:17;;;;;;;1.45;1.40;;;;;;;33.11;36.44;99980.75;5125926;27;20283;-65
2022/07/20 07:55:45;;;;;;;1.40;1.30;;;;;;;33.14;37.53;99980.38;5121243;27;20262;-65
2022/07/20 07:58:13;;;;;;;3.33;1.20;;;;;;;33.17;35.34;99980.03;5128980;27;20599;-66
2022/07/20 08:00:43;;;;;;;1.20;1.20;;;;;;;33.28;34.05;99976.94;5130932;27;20737;-66
2022/07/20 08:03:10;;;;;;;0.95;0.95;;;;;;;33.12;35.22;99982.38;5131238;27;20202;-65
2022/07/20 08:05:37;;;;;;;2.00;1.30;;;;;;;33.23;36.63;99978.47;5118856;28;20194;-65
2022/07/20 08:08:09;;;;;;;1.55;1.13;;;;;;;33.47;35.03;99958.88;5120606;28;20198;-66
2022/07/20 08:10:36;;;;;;;1.45;1.35;;;;;;;33.74;34.17;99971.59;5122103;28;20191;-66
2022/07/20 08:13:04;;;;;;;4.35;1.52;;;;;;;33.87;31.20;99955.84;5127941;28;20221;-66
2022/07/20 08:15:32;;;;;;;3.35;1.10;;;;;;;34.00;35.76;99966.66;5116219;27;20586;-66
2022/07/20 08:17:58;;;;;;;6.18;1.10;;;;;;;34.18;32.89;99953.03;5111322;28;20638;-65
2022/07/20 08:20:25;;;;;;;1.83;1.27;;;;;;;33.95;31.25;99958.41;5112516;28;20214;-66
2022/07/20 08:22:53;;;;;;;0.82;0.82;;;;;;;33.68;31.77;99948.38;5119121;28;20198;-64
2022/07/20 08:25:20;;;;;;;3.42;1.35;;;;;;;33.71;32.55;99956.81;5113707;28;20212;-65
2022/07/20 08:27:47;;;;;;;2.00;1.52;;;;;;;33.82;32.20;99947.59;5115879;27;20199;-64
2022/07/20 08:30:16;;;;;;;0.90;0.90;;;;;;;33.97;31.71;99943.09;5118144;28;20198;-65
2022/07/20 08:32:43;;;;;;;0.95;0.93;;;;;;;34.04;31.22;99949.34;5120799;28;20195;-65
2022/07/20 08:35:10;;;;;;;1.30;1.00;;;;;;;33.88;31.70;99949.50;5124985;28;20566;-65
2022/07/20 08:37:37;;;;;;;1.00;1.00;;;;;;;33.93;32.12;99947.13;5123476;28;20195;-64
2022/07/20 08:40:05;;;;;;;1.00;1.00;;;;;;;33.38;28.07;99954.63;5112263;27;20651;-65
2022/07/20 08:42:32;;;;;;;0.77;0.77;;;;;;;33.52;30.86;99946.69;5112136;28;20199;-65
2022/07/20 08:44:59;;;;;;;2.22;0.80;;;;;;;33.68;29.21;99945.72;5119599;28;20704;-65
2022/07/20 08:47:30;;;;;;;2.08;1.00;;;;;;;33.80;28.69;99944.25;5111179;28;20259;-64
2022/07/20 08:49:57;;;;;;;0.82;0.82;;;;;;;33.49;30.46;99940.88;5128387;28;20198;-65
2022/07/20 08:52:24;;;;;;;2.75;1.00;;;;;;;33.27;29.77;99926.63;5131510;28;20226;-65
2022/07/20 08:54:51;;;;;;;0.70;0.70;;;;;;;33.60;29.44;99933.34;5131176;28;20550;-65
2022/07/20 08:57:18;;;;;;;0.68;0.68;;;;;;;33.61;29.23;99939.47;5111303;28;20218;-65
2022/07/20 08:59:46;;;;;;;0.75;0.75;;;;;;;33.67;30.01;99936.09;5113744;28;20287;-65
2022/07/20 09:02:14;;;;;;;0.90;0.90;;;;;;;33.35;28.52;99928.38;5115135;27;20214;-66
2022/07/20 09:04:52;;;;;;;1.20;1.20;;;;;;;33.59;29.91;99925.50;5110678;28;20211;-65
2022/07/20 09:07:37;;;;;;;1.45;1.17;;;;;;;33.67;29.77;99928.09;5110864;28;20195;-65
2022/07/20 09:10:06;;;;;;;0.80;0.80;;;;;;;33.68;29.83;99916.47;5110616;28;20191;-64
2022/07/20 09:12:50;;;;;;;0.90;0.90;;;;;;;33.76;30.99;99913.75;5119849;27;20206;-65
2022/07/20 09:15:26;;;;;;;1.02;0.80;;;;;;;33.78;28.79;99919.69;5121466;28;20201;-65
2022/07/20 09:18:06;;;;;;;1.00;1.00;;;;;;;33.80;29.61;99915.00;5132564;27;20194;-67
2022/07/20 09:20:36;;;;;;;3.60;1.27;;;;;;;33.60;28.48;99916.53;5134200;27;20232;-67
2022/07/20 09:23:03;;;;;;;1.58;0.90;;;;;;;33.59;28.81;99920.19;5119899;27;20210;-66
2022/07/20 09:25:30;;;;;;;1.30;1.15;;;;;;;33.11;29.95;99916.13;5128268;27;20259;-65
2022/07/20 09:27:58;;;;;;;3.72;0.90;;;;;;;33.25;29.05;99908.19;5129271;27;20670;-65
2022/07/20 09:30:25;;;;;;;0.95;0.95;;;;;;;33.42;29.23;99908.88;5124836;27;20189;-65
2022/07/20 09:32:55;;;;;;;1.00;0.90;;;;;;;33.46;28.37;99915.50;5131669;27;20198;-64
2022/07/20 09:35:24;;;;;;;0.70;0.70;;;;;;;33.12;27.89;99917.81;5127469;27;20826;-64
2022/07/20 09:37:54;;;;;;;3.70;3.25;;;;;;;33.08;29.08;99911.97;5120914;27;20573;-64
2022/07/20 09:40:21;;;;;;;0.80;0.80;;;;;;;33.36;28.29;99906.94;5126931;27;20215;-65
2022/07/20 09:42:49;;;;;;;1.08;1.08;;;;;;;33.67;28.44;99901.50;5129808;27;20198;-65
2022/07/20 09:45:24;;;;;;;2.25;1.30;;;;;;;34.03;28.26;99896.28;5117578;27;20198;-65
2022/07/20 09:48:08;;;;;;;2.03;1.13;;;;;;;33.94;28.41;99876.94;5130134;27;20190;-65
2022/07/20 09:50:38;;;;;;;1.30;1.20;;;;;;;33.91;29.00;99879.97;5127198;27;20734;-65
2022/07/20 09:53:08;;;;;;;0.90;0.90;;;;;;;33.90;29.47;99894.28;5120467;27;20227;-66
2022/07/20 09:55:36;;;;;;;0.90;0.90;;;;;;;34.13;29.62;99892.38;5129546;27;20581;-65
2022/07/20 09:58:04;;;;;;;1.20;0.93;;;;;;;34.20;29.85;99897.78;5128577;27;20205;-65
2022/07/20 10:00:33;;;;;;;1.13;1.08;;;;;;;34.41;28.83;99887.19;5129657;27;20221;-65
2022/07/20 10:03:01;;;;;;;1.08;1.08;;;;;;;34.70;32.96;99884.44;5122087;27;20202;-65
2022/07/20 10:05:31;;;;;;;1.30;1.20;;;;;;;34.73;28.13;99884.09;5126092;27;20695;-65
2022/07/20 10:08:02;;;;;;;1.10;1.02;;;;;;;34.86;29.45;99874.56;5125781;27;20259;-66
2022/07/20 10:10:30;;;;;;;1.45;1.10;;;;;;;35.01;27.55;99873.47;5120738;27;20263;-65
2022/07/20 10:12:58;;;;;;;3.15;0.90;;;;;;;34.99;26.38;99864.84;5123474;27;20205;-66
2022/07/20 10:15:43;;;;;;;1.02;1.02;;;;;;;34.81;27.99;99864.47;5119872;27;20194;-65
2022/07/20 10:18:13;;;;;;;0.95;0.93;;;;;;;34.82;27.30;99866.13;5123397;27;20559;-65
2022/07/20 10:20:40;;;;;;;1.80;1.10;;;;;;;34.92;28.14;99871.97;5128716;27;20266;-64
2022/07/20 10:23:27;;;;;;;1.15;0.98;;;;;;;34.67;27.51;99865.38;5118412;27;20210;-64
2022/07/20 10:25:56;;;;;;;1.25;1.10;;;;;;;34.60;28.24;99861.78;5127280;27;20193;-66
2022/07/20 10:28:35;;;;;;;3.25;1.20;;;;;;;34.72;26.29;99854.97;5119566;27;20202;-65
2022/07/20 10:31:08;;;;;;;7.20;0.90;;;;;;;34.80;29.02;99849.50;5116671;27;20674;-66
2022/07/20 10:33:37;;;;;;;0.82;0.82;;;;;;;34.76;28.67;99848.25;5127662;27;20206;-66
2022/07/20 10:38:56;;;;;;;3.63;1.10;;;;;;;34.82;29.76;99836.81;5128040;27;20209;-65
2022/07/20 10:41:36;;;;;;;1.95;1.10;;;;;;;34.79;26.67;99835.38;5130974;27;20193;-65
2022/07/20 10:44:28;;;;;;;2.47;1.13;;;;;;;34.64;26.66;99841.75;5121185;27;20198;-66
2022/07/20 10:46:55;;;;;;;1.00;1.00;;;;;;;34.61;26.90;99839.47;5124757;27;20202;-65
2022/07/20 10:50:03;;;;;;;1.55;1.30;;;;;;;34.10;28.76;99825.34;5131415;27;20213;-65
2022/07/20 10:52:32;;;;;;;4.20;1.25;;;;;;;34.39;27.67;99827.97;5095567;27;20230;-65
2022/07/20 10:55:00;;;;;;;0.77;0.77;;;;;;;34.48;26.73;99821.50;5130447;27;20202;-65
2022/07/20 10:57:28;;;;;;;1.25;1.15;;;;;;;34.67;28.02;99820.91;5129816;27;20197;-66
2022/07/20 11:00:07;;;;;;;1.80;1.38;;;;;;;34.85;28.20;99812.47;5122828;27;20213;-66
2022/07/20 11:02:34;;;;;;;1.00;1.00;;;;;;;34.98;28.42;99817.91;5121751;27;20224;-66
2022/07/20 11:05:02;;;;;;;2.13;0.90;;;;;;;35.02;28.31;99802.34;5125967;27;20202;-65
2022/07/20 11:07:32;;;;;;;0.93;0.93;;;;;;;35.04;27.82;99795.81;5118003;27;20202;-66
2022/07/20 11:10:00;;;;;;;1.15;1.00;;;;;;;34.98;26.30;99799.25;5119409;27;20281;-66
2022/07/20 11:12:30;;;;;;;0.90;0.90;;;;;;;34.92;27.83;99799.19;5123478;27;20230;-67
2022/07/20 11:14:58;;;;;;;7.78;1.58;;;;;;;35.03;27.69;99786.16;5115848;27;20738;-65
2022/07/20 11:17:24;;;;;;;3.50;0.95;;;;;;;34.99;27.19;99798.25;5117404;27;20206;-66
2022/07/20 11:19:51;;;;;;;1.50;0.90;;;;;;;35.00;30.36;99794.53;5119431;27;20661;-65
2022/07/20 11:22:19;;;;;;;1.15;1.15;;;;;;;35.11;29.12;99780.72;5125584;27;20202;-65
2022/07/20 11:24:55;;;;;;;1.10;1.05;;;;;;;35.28;28.30;99781.25;5121718;27;20275;-66
2022/07/20 11:27:22;;;;;;;1.42;1.30;;;;;;;35.51;28.21;99789.75;5128949;27;20201;-65
2022/07/20 11:29:52;;;;;;;1.13;1.13;;;;;;;35.43;27.28;99781.94;5127845;27;20293;-65
2022/07/20 11:32:20;;;;;;;0.90;0.90;;;;;;;35.46;28.32;99775.38;5120638;27;20252;-65
2022/07/20 11:34:49;;;;;;;1.00;0.98;;;;;;;35.52;26.90;99777.25;5121124;27;20203;-68
2022/07/20 11:37:18;;;;;;;1.10;1.10;;;;;;;35.53;28.36;99771.75;5121256;27;20654;-65
2022/07/20 11:39:45;;;;;;;1.38;1.27;;;;;;;35.39;28.41;99769.19;5121947;27;20267;-65
2022/07/20 11:42:13;;;;;;;0.93;0.93;;;;;;;35.16;27.94;99772.94;5117258;27;20661;-65